Pagrindinis puslapis
METAR-TAF:

METAR-TAF

Oro uostai :

Palembangas, Indonezija

platuma: 02-54S, ilguma: 104-42E, Aukštis: 10 m

Dabartinis oras

Ataskaita buvo paskelbta 22 valandos ir 36 minutes, ne 22:30 UTC
Ramus vėjas
Temperatūra 24°C
Drėgmė 94%
Slėgis 1011 hPa
Matomumas: 1200 m
Mažai debesys ne aukštis 1000 ft
dūmai

METAR: WIPP 182230Z 00000KT 1200 FU FEW010 24/23 Q1011

Laikas: 04:06 (21:06 UTC)

Prognozė

Ataskaita buvo paskelbta 4 valandos ir 6 minutes, ne 17:00 UTC
Prognozė galioja nuo 19 metu 18 UTC su 20 metu 18 UTC
Vėjas 8 kt iš Pietryčių
Matomumas: 5000 m
Išsisklaidę debesys ne aukštis 1000 ft
dūmai
Laikinai
nuo 19 metu 21 UTC su 20 metu 01 UTC
Matomumas: 1000 m
Tapsmas
nuo 20 metu 08 UTC su 20 metu 10 UTC
Matomumas: 7000 m

TAF: WIPP 191700Z 1918/2018 13008KT 5000 FU SCT010 TEMPO 1921/2001 1000 BECMG 2008/2010 7000

Orai ataskaitas ir orų prognozės (METAR, TAF).

turimą stotys yra geltonos ir raudonos taškus žemėlapyje.

Perkelti pele per norėdami pamatyti stoties vardą.

Tada spustelėkite, norėdami matyti oro stebėjimo ir prognozės.

Norėdami pakeisti žemėlapį: spustelėkite ant žalios mygtukų su juodo kryžiaus žemyn,; žalią mygtuką su brūkšneliu, jei norite nutolinti; arba žalių rodyklių gretimoms žemėlapius.


METAR-TAF: